PWSweather.com
Personal Weather Stations
Station Observations
KCOGRAND2
Redlands, Southcamp Road & Dakota Circle, Grand Junction, CO 81507

Redlands, Southcamp Road & Dakota CircleGrand Junction, CO 81507

Lat: 39.055, Lon: -108.637

Elevation: 4870

Station Type: RadioShack WX200

Latest ConditionsUpdated 5:14:40 PM MST Friday, Feb 5, 2016
Currently Today's Max Today's Min Today's Average
Temperature 22.3°F-5.4°C 27.5°F-2.5°C 13.1°F-10.5°C 19.0°F-7.2°C
Dew Point 9.0°F-12.8°C 16.2°F-8.8°C 6.8°F-14.0°C 11.0°F-11.7°C
Winds 5.0 mph S8.0 kmh S 6.0 mph NE9.7 kmh NE - 1.9 mph 3.1 kmh
Wind Gusts 6.3 mph10.1 kmh 9.2 mph14.8 kmh - -
Humidity 56% 90% 45% 72%
Pressure 25.48 in862.9 mb 25.54 in864.9 mb 25.39 in859.8 mb -
Hour Temp Dew Point Humidity Winds Wind Gusts Pressure Precip Precip Rate Daily Precip Total
05:14 PM 22.3°F-5.4°C 9.0°F-12.8°C 56% 5.0 mph S8.0 kmh S 6.3 mph10.1 kmh 25.48 in862.9 mb 0.00 in0.0 mm 0.00 in0.0 mm 0.00 in0.0 mm
05:09 PM 22.6°F-5.2°C 9.3°F-12.6°C 56% 6.0 mph S9.7 kmh S 6.7 mph10.8 kmh 25.48 in862.9 mb 0.00 in0.0 mm 0.00 in0.0 mm 0.00 in0.0 mm
05:04 PM 23.0°F-5.0°C 9.3°F-12.6°C 55% 6.0 mph S9.7 kmh S 8.7 mph14.0 kmh 25.48 in862.9 mb 0.00 in0.0 mm 0.00 in0.0 mm 0.00 in0.0 mm
04:59 PM 23.4°F-4.8°C 9.1°F-12.7°C 54% 6.0 mph SSE9.7 kmh SSE 8.7 mph14.0 kmh 25.48 in862.9 mb 0.00 in0.0 mm 0.00 in0.0 mm 0.00 in0.0 mm
04:54 PM 23.7°F-4.6°C 9.1°F-12.7°C 53% 6.0 mph SSE9.7 kmh SSE 9.2 mph14.8 kmh 25.48 in862.9 mb 0.00 in0.0 mm 0.00 in0.0 mm 0.00 in0.0 mm
04:49 PM 24.1°F-4.4°C 9.5°F-12.5°C 53% 6.0 mph S9.7 kmh S 8.3 mph13.4 kmh 25.48 in862.9 mb 0.00 in0.0 mm 0.00 in0.0 mm 0.00 in0.0 mm
04:44 PM 24.1°F-4.4°C 9.5°F-12.5°C 53% 5.0 mph W8.0 kmh W 7.8 mph12.6 kmh 25.48 in862.9 mb 0.00 in0.0 mm 0.00 in0.0 mm 0.00 in0.0 mm
04:39 PM 24.4°F-4.2°C 9.3°F-12.6°C 52% 4.0 mph NW6.4 kmh NW 6.7 mph10.8 kmh 25.48 in862.9 mb 0.00 in0.0 mm 0.00 in0.0 mm 0.00 in0.0 mm
04:34 PM 24.6°F-4.1°C 8.2°F-13.2°C 49% 2.0 mph NW3.2 kmh NW 6.3 mph10.1 kmh 25.48 in862.9 mb 0.00 in0.0 mm 0.00 in0.0 mm 0.00 in0.0 mm
04:29 PM 25.2°F-3.8°C 8.2°F-13.2°C 48% 1.0 mph NNW1.6 kmh NNW 2.7 mph4.3 kmh 25.48 in862.9 mb 0.00 in0.0 mm 0.00 in0.0 mm 0.00 in0.0 mm
04:24 PM 25.0°F-3.9°C 7.7°F-13.5°C 47% 2.0 mph NNW3.2 kmh NNW 4.5 mph7.2 kmh 25.48 in862.9 mb 0.00 in0.0 mm 0.00 in0.0 mm 0.00 in0.0 mm
04:19 PM 25.3°F-3.7°C 7.5°F-13.6°C 46% 1.0 mph NNW1.6 kmh NNW 4.0 mph6.4 kmh 25.48 in862.9 mb 0.00 in0.0 mm 0.00 in0.0 mm 0.00 in0.0 mm
04:14 PM 26.2°F-3.2°C 8.2°F-13.2°C 46% Calm Calm -- 25.48 in862.9 mb 0.00 in0.0 mm 0.00 in0.0 mm 0.00 in0.0 mm
04:09 PM 26.4°F-3.1°C 9.0°F-12.8°C 47% Calm Calm -- 25.48 in862.9 mb 0.00 in0.0 mm 0.00 in0.0 mm 0.00 in0.0 mm
04:04 PM 25.9°F-3.4°C 8.1°F-13.3°C 46% 1.0 mph NNW1.6 kmh NNW -- 25.48 in862.9 mb 0.00 in0.0 mm 0.00 in0.0 mm 0.00 in0.0 mm
03:59 PM 25.5°F-3.6°C 7.7°F-13.5°C 46% 2.0 mph NNW3.2 kmh NNW 4.0 mph6.4 kmh 25.48 in862.9 mb 0.00 in0.0 mm 0.00 in0.0 mm 0.00 in0.0 mm
03:54 PM 26.2°F-3.2°C 8.2°F-13.2°C 46% 1.0 mph NNW1.6 kmh NNW 4.0 mph6.4 kmh 25.48 in862.9 mb 0.00 in0.0 mm 0.00 in0.0 mm 0.00 in0.0 mm
03:49 PM 26.6°F-3.0°C 9.1°F-12.7°C 47% 1.0 mph NW1.6 kmh NW 2.7 mph4.3 kmh 25.48 in862.9 mb 0.00 in0.0 mm 0.00 in0.0 mm 0.00 in0.0 mm
03:44 PM 25.5°F-3.6°C 8.6°F-13.0°C 48% 3.0 mph NNW4.8 kmh NNW 5.4 mph8.7 kmh 25.48 in862.9 mb 0.00 in0.0 mm 0.00 in0.0 mm 0.00 in0.0 mm
03:39 PM 25.2°F-3.8°C 7.9°F-13.4°C 47% 4.0 mph NNW6.4 kmh NNW 5.4 mph8.7 kmh 25.48 in862.9 mb 0.00 in0.0 mm 0.00 in0.0 mm 0.00 in0.0 mm
03:34 PM 25.3°F-3.7°C 7.9°F-13.4°C 47% 3.0 mph N4.8 kmh N 5.4 mph8.7 kmh 25.48 in862.9 mb 0.00 in0.0 mm 0.00 in0.0 mm 0.00 in0.0 mm
03:29 PM 25.5°F-3.6°C 7.7°F-13.5°C 46% 3.0 mph N4.8 kmh N 4.5 mph7.2 kmh 25.48 in862.9 mb 0.00 in0.0 mm 0.00 in0.0 mm 0.00 in0.0 mm
03:24 PM 25.9°F-3.4°C 7.5°F-13.6°C 45% 2.0 mph NNE3.2 kmh NNE 4.5 mph7.2 kmh 25.48 in862.9 mb 0.00 in0.0 mm 0.00 in0.0 mm 0.00 in0.0 mm
03:19 PM 26.8°F-2.9°C 8.2°F-13.2°C 45% 1.0 mph NNE1.6 kmh NNE 3.6 mph5.8 kmh 25.48 in862.9 mb 0.00 in0.0 mm 0.00 in0.0 mm 0.00 in0.0 mm
03:14 PM 27.3°F-2.6°C 8.8°F-12.9°C 45% 1.0 mph NNE1.6 kmh NNE 3.1 mph5.0 kmh 25.48 in862.9 mb 0.00 in0.0 mm 0.00 in0.0 mm 0.00 in0.0 mm
03:09 PM 27.5°F-2.5°C 9.5°F-12.5°C 46% 2.0 mph NNE3.2 kmh NNE 4.0 mph6.4 kmh 25.48 in862.9 mb 0.00 in0.0 mm 0.00 in0.0 mm 0.00 in0.0 mm
03:04 PM 26.6°F-3.0°C 9.1°F-12.7°C 47% 2.0 mph N3.2 kmh N 4.9 mph7.9 kmh 25.48 in862.9 mb 0.00 in0.0 mm 0.00 in0.0 mm 0.00 in0.0 mm
02:59 PM 25.5°F-3.6°C 8.1°F-13.3°C 47% 2.0 mph N3.2 kmh N 5.4 mph8.7 kmh 25.48 in862.9 mb 0.00 in0.0 mm 0.00 in0.0 mm 0.00 in0.0 mm
02:54 PM 26.1°F-3.3°C 8.6°F-13.0°C 47% 1.0 mph N1.6 kmh N 4.5 mph7.2 kmh 25.48 in862.9 mb 0.00 in0.0 mm 0.00 in0.0 mm 0.00 in0.0 mm
02:49 PM 26.4°F-3.1°C 9.5°F-12.5°C 48% 2.0 mph N3.2 kmh N 3.6 mph5.8 kmh 25.48 in862.9 mb 0.00 in0.0 mm 0.00 in0.0 mm 0.00 in0.0 mm
02:44 PM 25.2°F-3.8°C 8.8°F-12.9°C 49% 3.0 mph NE4.8 kmh NE 4.9 mph7.9 kmh 25.48 in862.9 mb 0.00 in0.0 mm 0.00 in0.0 mm 0.00 in0.0 mm
02:39 PM 24.6°F-4.1°C 8.2°F-13.2°C 49% 3.0 mph NE4.8 kmh NE 5.8 mph9.3 kmh 25.48 in862.9 mb 0.00 in0.0 mm 0.00 in0.0 mm 0.00 in0.0 mm
02:34 PM 24.8°F-4.0°C 8.4°F-13.1°C 49% 4.0 mph NE6.4 kmh NE 5.8 mph9.3 kmh 25.48 in862.9 mb 0.00 in0.0 mm 0.00 in0.0 mm 0.00 in0.0 mm
02:29 PM 23.9°F-4.5°C 7.2°F-13.8°C 48% 2.0 mph NNE3.2 kmh NNE 5.4 mph8.7 kmh 25.48 in862.9 mb 0.00 in0.0 mm 0.00 in0.0 mm 0.00 in0.0 mm
02:24 PM 24.4°F-4.2°C 7.5°F-13.6°C 48% 2.0 mph NNE3.2 kmh NNE 5.4 mph8.7 kmh 25.48 in862.9 mb 0.00 in0.0 mm 0.00 in0.0 mm 0.00 in0.0 mm
02:19 PM 24.8°F-4.0°C 7.9°F-13.4°C 48% 3.0 mph NNE4.8 kmh NNE 4.9 mph7.9 kmh 25.48 in862.9 mb 0.00 in0.0 mm 0.00 in0.0 mm 0.00 in0.0 mm
02:14 PM 24.6°F-4.1°C 7.7°F-13.5°C 48% 3.0 mph NNE4.8 kmh NNE 5.4 mph8.7 kmh 25.48 in862.9 mb 0.00 in0.0 mm 0.00 in0.0 mm 0.00 in0.0 mm
02:09 PM 24.8°F-4.0°C 7.9°F-13.4°C 48% 3.0 mph N4.8 kmh N 4.5 mph7.2 kmh 25.48 in862.9 mb 0.00 in0.0 mm 0.00 in0.0 mm 0.00 in0.0 mm
02:04 PM 24.6°F-4.1°C 6.8°F-14.0°C 46% 2.0 mph N3.2 kmh N 5.4 mph8.7 kmh 25.48 in862.9 mb 0.00 in0.0 mm 0.00 in0.0 mm 0.00 in0.0 mm
01:59 PM 24.8°F-4.0°C 7.0°F-13.9°C 46% 2.0 mph N3.2 kmh N 4.9 mph7.9 kmh 25.48 in862.9 mb 0.00 in0.0 mm 0.00 in0.0 mm 0.00 in0.0 mm
01:54 PM 25.5°F-3.6°C 7.7°F-13.5°C 46% 1.0 mph N1.6 kmh N 4.9 mph7.9 kmh 25.48 in862.9 mb 0.00 in0.0 mm 0.00 in0.0 mm 0.00 in0.0 mm
01:49 PM 25.7°F-3.5°C 7.9°F-13.4°C 46% 2.0 mph N3.2 kmh N 3.6 mph5.8 kmh 25.48 in862.9 mb 0.00 in0.0 mm 0.00 in0.0 mm 0.00 in0.0 mm
01:44 PM 25.3°F-3.7°C 7.5°F-13.6°C 46% 2.0 mph N3.2 kmh N 4.5 mph7.2 kmh 25.48 in862.9 mb 0.00 in0.0 mm 0.00 in0.0 mm 0.00 in0.0 mm
01:39 PM 27.0°F-2.8°C 8.4°F-13.1°C 45% 1.0 mph NNE1.6 kmh NNE 4.0 mph6.4 kmh 25.48 in862.9 mb 0.00 in0.0 mm 0.00 in0.0 mm 0.00 in0.0 mm
01:34 PM 26.8°F-2.9°C 8.8°F-12.9°C 46% 1.0 mph NNE1.6 kmh NNE 3.6 mph5.8 kmh 25.48 in862.9 mb 0.00 in0.0 mm 0.00 in0.0 mm 0.00 in0.0 mm
01:29 PM 26.8°F-2.9°C 9.7°F-12.4°C 48% 1.0 mph NNE1.6 kmh NNE 3.6 mph5.8 kmh 25.51 in863.9 mb 0.00 in0.0 mm 0.00 in0.0 mm 0.00 in0.0 mm
01:24 PM 25.3°F-3.7°C 9.0°F-12.8°C 49% 2.0 mph NNE3.2 kmh NNE 3.6 mph5.8 kmh 25.51 in863.9 mb 0.00 in0.0 mm 0.00 in0.0 mm 0.00 in0.0 mm
01:19 PM 25.2°F-3.8°C 8.2°F-13.2°C 48% 2.0 mph NNE3.2 kmh NNE 4.5 mph7.2 kmh 25.51 in863.9 mb 0.00 in0.0 mm 0.00 in0.0 mm 0.00 in0.0 mm
01:14 PM 26.2°F-3.2°C 10.2°F-12.1°C 50% 2.0 mph NNE3.2 kmh NNE 4.0 mph6.4 kmh 25.51 in863.9 mb 0.00 in0.0 mm 0.00 in0.0 mm 0.00 in0.0 mm
01:09 PM 25.0°F-3.9°C 9.9°F-12.3°C 52% 3.0 mph NNE4.8 kmh NNE 4.5 mph7.2 kmh 25.51 in863.9 mb 0.00 in0.0 mm 0.00 in0.0 mm 0.00 in0.0 mm
01:04 PM 23.7°F-4.6°C 8.8°F-12.9°C 52% 3.0 mph N4.8 kmh N 4.5 mph7.2 kmh 25.51 in863.9 mb 0.00 in0.0 mm 0.00 in0.0 mm 0.00 in0.0 mm
12:59 PM 23.4°F-4.8°C 8.4°F-13.1°C 52% 2.0 mph NNW3.2 kmh NNW 4.5 mph7.2 kmh 25.51 in863.9 mb 0.00 in0.0 mm 0.00 in0.0 mm 0.00 in0.0 mm
12:54 PM 23.9°F-4.5°C 9.3°F-12.6°C 53% 3.0 mph NW4.8 kmh NW 5.4 mph8.7 kmh 25.51 in863.9 mb 0.00 in0.0 mm 0.00 in0.0 mm 0.00 in0.0 mm
12:49 PM 22.5°F-5.3°C 7.9°F-13.4°C 53% 4.0 mph NW6.4 kmh NW 5.4 mph8.7 kmh 25.51 in863.9 mb 0.00 in0.0 mm 0.00 in0.0 mm 0.00 in0.0 mm
12:44 PM 22.6°F-5.2°C 8.1°F-13.3°C 53% 3.0 mph NW4.8 kmh NW 4.9 mph7.9 kmh 25.51 in863.9 mb 0.00 in0.0 mm 0.00 in0.0 mm 0.00 in0.0 mm
12:39 PM 23.0°F-5.0°C 8.4°F-13.1°C 53% 3.0 mph NW4.8 kmh NW 5.4 mph8.7 kmh 25.51 in863.9 mb 0.00 in0.0 mm 0.00 in0.0 mm 0.00 in0.0 mm
12:34 PM 23.0°F-5.0°C 8.1°F-13.3°C 52% 2.0 mph N3.2 kmh N 5.4 mph8.7 kmh 25.51 in863.9 mb 0.00 in0.0 mm 0.00 in0.0 mm 0.00 in0.0 mm
12:29 PM 23.0°F-5.0°C 8.4°F-13.1°C 53% 3.0 mph N4.8 kmh N 4.0 mph6.4 kmh 25.51 in863.9 mb 0.00 in0.0 mm 0.00 in0.0 mm 0.00 in0.0 mm
12:24 PM 22.6°F-5.2°C 8.1°F-13.3°C 53% 4.0 mph N6.4 kmh N 6.3 mph10.1 kmh 25.51 in863.9 mb 0.00 in0.0 mm 0.00 in0.0 mm 0.00 in0.0 mm
12:19 PM 21.7°F-5.7°C 7.7°F-13.5°C 54% 4.0 mph NNE6.4 kmh NNE 6.9 mph11.1 kmh 25.51 in863.9 mb 0.00 in0.0 mm 0.00 in0.0 mm 0.00 in0.0 mm
12:14 PM 22.1°F-5.5°C 8.1°F-13.3°C 54% 4.0 mph NNE6.4 kmh NNE 5.4 mph8.7 kmh 25.51 in863.9 mb 0.00 in0.0 mm 0.00 in0.0 mm 0.00 in0.0 mm
12:09 PM 21.6°F-5.8°C 7.9°F-13.4°C 55% 4.0 mph NNE6.4 kmh NNE 6.3 mph10.1 kmh 25.51 in863.9 mb 0.00 in0.0 mm 0.00 in0.0 mm 0.00 in0.0 mm
12:04 PM 21.7°F-5.7°C 7.7°F-13.5°C 54% 4.0 mph NNE6.4 kmh NNE 6.7 mph10.8 kmh 25.51 in863.9 mb 0.00 in0.0 mm 0.00 in0.0 mm 0.00 in0.0 mm
11:59 AM 21.7°F-5.7°C 7.7°F-13.5°C 54% 4.0 mph NNE6.4 kmh NNE 7.4 mph11.9 kmh 25.51 in863.9 mb 0.00 in0.0 mm 0.00 in0.0 mm 0.00 in0.0 mm
11:54 AM 21.6°F-5.8°C 7.5°F-13.6°C 54% 4.0 mph N6.4 kmh N 7.4 mph11.9 kmh 25.51 in863.9 mb 0.00 in0.0 mm 0.00 in0.0 mm 0.00 in0.0 mm
11:49 AM 22.3°F-5.4°C 7.7°F-13.5°C 53% 3.0 mph NW4.8 kmh NW 5.8 mph9.3 kmh 25.51 in863.9 mb 0.00 in0.0 mm 0.00 in0.0 mm 0.00 in0.0 mm
11:44 AM 23.4°F-4.8°C 9.1°F-12.7°C 54% 1.0 mph NW1.6 kmh NW 5.4 mph8.7 kmh 25.54 in864.9 mb 0.00 in0.0 mm 0.00 in0.0 mm 0.00 in0.0 mm
11:39 AM 23.0°F-5.0°C 8.8°F-12.9°C 54% 2.0 mph NNW3.2 kmh NNW 5.8 mph9.3 kmh 25.54 in864.9 mb 0.00 in0.0 mm 0.00 in0.0 mm 0.00 in0.0 mm
11:34 AM 21.9°F-5.6°C 8.2°F-13.2°C 55% 3.0 mph NNW4.8 kmh NNW 6.3 mph10.1 kmh 25.54 in864.9 mb 0.00 in0.0 mm 0.00 in0.0 mm 0.00 in0.0 mm
11:28 AM 21.6°F-5.8°C 7.9°F-13.4°C 55% 3.0 mph NW4.8 kmh NW 5.4 mph8.7 kmh 25.54 in864.9 mb 0.00 in0.0 mm 0.00 in0.0 mm 0.00 in0.0 mm
11:23 AM 21.0°F-6.1°C 7.3°F-13.7°C 55% 3.0 mph N4.8 kmh N 5.8 mph9.3 kmh 25.54 in864.9 mb 0.00 in0.0 mm 0.00 in0.0 mm 0.00 in0.0 mm
11:18 AM 21.6°F-5.8°C 8.2°F-13.2°C 56% 2.0 mph N3.2 kmh N 5.4 mph8.7 kmh 25.54 in864.9 mb 0.00 in0.0 mm 0.00 in0.0 mm 0.00 in0.0 mm
11:13 AM 22.5°F-5.3°C 9.5°F-12.5°C 57% 2.0 mph N3.2 kmh N 3.6 mph5.8 kmh 25.54 in864.9 mb 0.00 in0.0 mm 0.00 in0.0 mm 0.00 in0.0 mm
11:08 AM 22.1°F-5.5°C 9.7°F-12.4°C 58% 2.0 mph 3.2 kmh 4.5 mph7.2 kmh 25.54 in864.9 mb 0.00 in0.0 mm 0.00 in0.0 mm 0.00 in0.0 mm
11:03 AM 22.6°F-5.2°C 10.6°F-11.9°C 59% 1.0 mph NNE1.6 kmh NNE 4.0 mph6.4 kmh 25.54 in864.9 mb 0.00 in0.0 mm 0.00 in0.0 mm 0.00 in0.0 mm
10:58 AM 21.7°F-5.7°C 10.0°F-12.2°C 60% 1.0 mph E1.6 kmh E 4.5 mph7.2 kmh 25.54 in864.9 mb 0.00 in0.0 mm 0.00 in0.0 mm 0.00 in0.0 mm
10:53 AM 21.6°F-5.8°C 10.2°F-12.1°C 61% 1.0 mph E1.6 kmh E 4.0 mph6.4 kmh 25.54 in864.9 mb 0.00 in0.0 mm 0.00 in0.0 mm 0.00 in0.0 mm
10:48 AM 21.9°F-5.6°C 10.6°F-11.9°C 61% 1.0 mph E1.6 kmh E 4.0 mph6.4 kmh 25.54 in864.9 mb 0.00 in0.0 mm 0.00 in0.0 mm 0.00 in0.0 mm
10:43 AM 21.9°F-5.6°C 10.9°F-11.7°C 62% 2.0 mph NE3.2 kmh NE 4.5 mph7.2 kmh 25.51 in863.9 mb 0.00 in0.0 mm 0.00 in0.0 mm 0.00 in0.0 mm
10:38 AM 20.7°F-6.3°C 9.3°F-12.6°C 61% 3.0 mph N4.8 kmh N 4.9 mph7.9 kmh 25.51 in863.9 mb 0.00 in0.0 mm 0.00 in0.0 mm 0.00 in0.0 mm
10:33 AM 21.0°F-6.1°C 10.0°F-12.2°C 62% 2.0 mph N3.2 kmh N 5.4 mph8.7 kmh 25.51 in863.9 mb 0.00 in0.0 mm 0.00 in0.0 mm 0.00 in0.0 mm
10:28 AM -5537.2°C -5537.2°C - 1.0 mph W1.6 kmh W 4.9 mph7.9 kmh 25.51 in863.9 mb 0.00 in0.0 mm 0.00 in0.0 mm 0.00 in0.0 mm
10:23 AM 21.0°F-6.1°C 11.1°F-11.6°C 65% 2.0 mph WSW3.2 kmh WSW 4.9 mph7.9 kmh 25.51 in863.9 mb 0.00 in0.0 mm 0.00 in0.0 mm 0.00 in0.0 mm
10:18 AM 20.3°F-6.5°C -5537.2°C - 2.0 mph W3.2 kmh W 5.8 mph9.3 kmh 25.51 in863.9 mb 0.00 in0.0 mm 0.00 in0.0 mm 0.00 in0.0 mm
10:13 AM -5537.2°C -5537.2°C - 2.0 mph WSW3.2 kmh WSW 5.4 mph8.7 kmh 25.51 in863.9 mb 0.00 in0.0 mm 0.00 in0.0 mm 0.00 in0.0 mm
10:08 AM 21.0°F-6.1°C 13.5°F-10.3°C 72% 1.0 mph WSW1.6 kmh WSW 4.5 mph7.2 kmh 25.51 in863.9 mb 0.00 in0.0 mm 0.00 in0.0 mm 0.00 in0.0 mm
10:03 AM 21.4°F-5.9°C 14.4°F-9.8°C 74% 2.0 mph WSW3.2 kmh WSW 3.6 mph5.8 kmh 25.51 in863.9 mb 0.00 in0.0 mm 0.00 in0.0 mm 0.00 in0.0 mm
09:58 AM 20.8°F-6.2°C 14.5°F-9.7°C 76% 2.0 mph WSW3.2 kmh WSW 5.4 mph8.7 kmh 25.51 in863.9 mb 0.00 in0.0 mm 0.00 in0.0 mm 0.00 in0.0 mm
09:53 AM 20.7°F-6.3°C 15.3°F-9.3°C 79% 3.0 mph WSW4.8 kmh WSW 4.5 mph7.2 kmh 25.51 in863.9 mb 0.00 in0.0 mm 0.00 in0.0 mm 0.00 in0.0 mm
09:48 AM 20.5°F-6.4°C 15.6°F-9.1°C 81% 3.0 mph WSW4.8 kmh WSW 4.9 mph7.9 kmh 25.51 in863.9 mb 0.00 in0.0 mm 0.00 in0.0 mm 0.00 in0.0 mm
09:43 AM 20.3°F-6.5°C 16.0°F-8.9°C 83% 4.0 mph WSW6.4 kmh WSW 4.9 mph7.9 kmh 25.51 in863.9 mb 0.00 in0.0 mm 0.00 in0.0 mm 0.00 in0.0 mm
09:38 AM 19.9°F-6.7°C 16.2°F-8.8°C 85% 4.0 mph WSW6.4 kmh WSW 6.3 mph10.1 kmh 25.51 in863.9 mb 0.00 in0.0 mm 0.00 in0.0 mm 0.00 in0.0 mm
09:33 AM 19.0°F-7.2°C 15.3°F-9.3°C 85% 3.0 mph WSW4.8 kmh WSW 5.4 mph8.7 kmh 25.51 in863.9 mb 0.00 in0.0 mm 0.00 in0.0 mm 0.00 in0.0 mm
09:28 AM 18.5°F-7.5°C 15.1°F-9.4°C 86% 3.0 mph WSW4.8 kmh WSW 4.5 mph7.2 kmh 25.51 in863.9 mb 0.00 in0.0 mm 0.00 in0.0 mm 0.00 in0.0 mm
09:23 AM 17.8°F-7.9°C 14.4°F-9.8°C 86% 4.0 mph WSW6.4 kmh WSW 4.9 mph7.9 kmh 25.51 in863.9 mb 0.00 in0.0 mm 0.00 in0.0 mm 0.00 in0.0 mm
09:18 AM 17.6°F-8.0°C 14.2°F-9.9°C 86% 4.0 mph WSW6.4 kmh WSW 6.7 mph10.8 kmh 25.51 in863.9 mb 0.00 in0.0 mm 0.00 in0.0 mm 0.00 in0.0 mm
09:13 AM 17.6°F-8.0°C 14.4°F-9.8°C 87% 3.0 mph SW4.8 kmh SW 4.9 mph7.9 kmh 25.51 in863.9 mb 0.00 in0.0 mm 0.00 in0.0 mm 0.00 in0.0 mm
09:08 AM 17.2°F-8.2°C 14.0°F-10.0°C 87% 3.0 mph SW4.8 kmh SW 4.9 mph7.9 kmh 25.51 in863.9 mb 0.00 in0.0 mm 0.00 in0.0 mm 0.00 in0.0 mm
09:03 AM 17.2°F-8.2°C 14.0°F-10.0°C 87% 3.0 mph WSW4.8 kmh WSW 4.5 mph7.2 kmh 25.51 in863.9 mb 0.00 in0.0 mm 0.00 in0.0 mm 0.00 in0.0 mm
08:58 AM 16.9°F-8.4°C 13.6°F-10.2°C 87% 3.0 mph WSW4.8 kmh WSW 4.0 mph6.4 kmh 25.51 in863.9 mb 0.00 in0.0 mm 0.00 in0.0 mm 0.00 in0.0 mm
08:53 AM 16.7°F-8.5°C 13.5°F-10.3°C 87% 3.0 mph WSW4.8 kmh WSW 4.5 mph7.2 kmh 25.51 in863.9 mb 0.00 in0.0 mm 0.00 in0.0 mm 0.00 in0.0 mm
08:48 AM 16.5°F-8.6°C 13.6°F-10.2°C 88% 3.0 mph WSW4.8 kmh WSW 4.9 mph7.9 kmh 25.51 in863.9 mb 0.00 in0.0 mm 0.00 in0.0 mm 0.00 in0.0 mm
08:43 AM 16.3°F-8.7°C 13.5°F-10.3°C 88% 4.0 mph WSW6.4 kmh WSW 4.9 mph7.9 kmh 25.51 in863.9 mb 0.00 in0.0 mm 0.00 in0.0 mm 0.00 in0.0 mm
08:38 AM 16.3°F-8.7°C 13.1°F-10.5°C 87% 5.0 mph WSW8.0 kmh WSW 6.3 mph10.1 kmh 25.51 in863.9 mb 0.00 in0.0 mm 0.00 in0.0 mm 0.00 in0.0 mm
08:33 AM 16.2°F-8.8°C 12.7°F-10.7°C 86% 5.0 mph SW8.0 kmh SW 6.9 mph11.1 kmh 25.51 in863.9 mb 0.00 in0.0 mm 0.00 in0.0 mm 0.00 in0.0 mm
08:28 AM 16.5°F-8.6°C 12.7°F-10.7°C 85% 5.0 mph SW8.0 kmh SW 6.7 mph10.8 kmh 25.51 in863.9 mb 0.00 in0.0 mm 0.00 in0.0 mm 0.00 in0.0 mm
08:23 AM 16.5°F-8.6°C 12.2°F-11.0°C 83% 5.0 mph SW8.0 kmh SW 6.7 mph10.8 kmh 25.51 in863.9 mb 0.00 in0.0 mm 0.00 in0.0 mm 0.00 in0.0 mm
08:18 AM 16.7°F-8.5°C 12.2°F-11.0°C 82% 3.0 mph S4.8 kmh S 6.7 mph10.8 kmh 25.51 in863.9 mb 0.00 in0.0 mm 0.00 in0.0 mm 0.00 in0.0 mm
08:13 AM 16.9°F-8.4°C 12.0°F-11.1°C 81% Calm Calm 6.7 mph10.8 kmh 25.48 in862.9 mb 0.00 in0.0 mm 0.00 in0.0 mm 0.00 in0.0 mm
08:08 AM 16.9°F-8.4°C 12.0°F-11.1°C 81% 1.0 mph E1.6 kmh E -- 25.48 in862.9 mb 0.00 in0.0 mm 0.00 in0.0 mm 0.00 in0.0 mm
08:03 AM 16.7°F-8.5°C 11.8°F-11.2°C 81% 1.0 mph E1.6 kmh E 3.6 mph5.8 kmh 25.48 in862.9 mb 0.00 in0.0 mm 0.00 in0.0 mm 0.00 in0.0 mm
07:58 AM 16.7°F-8.5°C 12.2°F-11.0°C 82% 1.0 mph E1.6 kmh E 3.1 mph5.0 kmh 25.48 in862.9 mb 0.00 in0.0 mm 0.00 in0.0 mm 0.00 in0.0 mm
07:53 AM 16.5°F-8.6°C 12.0°F-11.1°C 82% 1.0 mph E1.6 kmh E 4.0 mph6.4 kmh 25.48 in862.9 mb 0.00 in0.0 mm 0.00 in0.0 mm 0.00 in0.0 mm
07:48 AM 16.3°F-8.7°C 11.8°F-11.2°C 82% Calm Calm 2.7 mph4.3 kmh 25.48 in862.9 mb 0.00 in0.0 mm 0.00 in0.0 mm 0.00 in0.0 mm
07:43 AM 16.3°F-8.7°C 12.0°F-11.1°C 83% 1.0 mph E1.6 kmh E 3.6 mph5.8 kmh 25.48 in862.9 mb 0.00 in0.0 mm 0.00 in0.0 mm 0.00 in0.0 mm
07:38 AM 16.3°F-8.7°C 12.0°F-11.1°C 83% 3.0 mph E4.8 kmh E 4.9 mph7.9 kmh 25.48 in862.9 mb 0.00 in0.0 mm 0.00 in0.0 mm 0.00 in0.0 mm
07:33 AM 16.3°F-8.7°C 12.0°F-11.1°C 83% 4.0 mph E6.4 kmh E 5.8 mph9.3 kmh 25.48 in862.9 mb 0.00 in0.0 mm 0.00 in0.0 mm 0.00 in0.0 mm
07:28 AM 16.5°F-8.6°C 12.2°F-11.0°C 83% 5.0 mph ENE8.0 kmh ENE 6.7 mph10.8 kmh 25.48 in862.9 mb 0.00 in0.0 mm 0.00 in0.0 mm 0.00 in0.0 mm
07:23 AM 16.5°F-8.6°C 12.6°F-10.8°C 84% 5.0 mph NE8.0 kmh NE 8.3 mph13.4 kmh 25.48 in862.9 mb 0.00 in0.0 mm 0.00 in0.0 mm 0.00 in0.0 mm
07:18 AM 16.5°F-8.6°C 12.6°F-10.8°C 84% 6.0 mph NE9.7 kmh NE 8.3 mph13.4 kmh 25.48 in862.9 mb 0.00 in0.0 mm 0.00 in0.0 mm 0.00 in0.0 mm
07:13 AM 16.3°F-8.7°C 12.4°F-10.9°C 84% 6.0 mph NE9.7 kmh NE 8.3 mph13.4 kmh 25.48 in862.9 mb 0.00 in0.0 mm 0.00 in0.0 mm 0.00 in0.0 mm
07:08 AM 16.0°F-8.9°C 12.6°F-10.8°C 86% 5.0 mph NE8.0 kmh NE 8.3 mph13.4 kmh 25.48 in862.9 mb 0.00 in0.0 mm 0.00 in0.0 mm 0.00 in0.0 mm
07:03 AM 16.2°F-8.8°C 13.3°F-10.4°C 88% 4.0 mph NE6.4 kmh NE 7.4 mph11.9 kmh 25.48 in862.9 mb 0.00 in0.0 mm 0.00 in0.0 mm 0.00 in0.0 mm
06:58 AM 16.0°F-8.9°C 13.3°F-10.4°C 89% 3.0 mph NE4.8 kmh NE 6.7 mph10.8 kmh 25.48 in862.9 mb 0.00 in0.0 mm 0.00 in0.0 mm 0.00 in0.0 mm
06:53 AM 16.0°F-8.9°C 13.3°F-10.4°C 89% 3.0 mph N4.8 kmh N 5.4 mph8.7 kmh 25.48 in862.9 mb 0.00 in0.0 mm 0.00 in0.0 mm 0.00 in0.0 mm
06:48 AM 15.8°F-9.0°C 13.1°F-10.5°C 89% 1.0 mph WSW1.6 kmh WSW 6.7 mph10.8 kmh 25.48 in862.9 mb 0.00 in0.0 mm 0.00 in0.0 mm 0.00 in0.0 mm
06:43 AM 15.6°F-9.1°C 12.9°F-10.6°C 89% Calm Calm 3.6 mph5.8 kmh 25.45 in861.8 mb 0.00 in0.0 mm 0.00 in0.0 mm 0.00 in0.0 mm
06:38 AM 15.6°F-9.1°C 12.9°F-10.6°C 89% Calm Calm 2.7 mph4.3 kmh 25.45 in861.8 mb 0.00 in0.0 mm 0.00 in0.0 mm 0.00 in0.0 mm
06:33 AM 15.1°F-9.4°C 12.4°F-10.9°C 89% Calm Calm 3.6 mph5.8 kmh 25.45 in861.8 mb 0.00 in0.0 mm 0.00 in0.0 mm 0.00 in0.0 mm
06:28 AM 14.7°F-9.6°C 12.0°F-11.1°C 89% Calm Calm -- 25.45 in861.8 mb 0.00 in0.0 mm 0.00 in0.0 mm 0.00 in0.0 mm
06:23 AM 14.7°F-9.6°C 12.4°F-10.9°C 90% Calm Calm -- 25.45 in861.8 mb 0.00 in0.0 mm 0.00 in0.0 mm 0.00 in0.0 mm
06:18 AM 14.5°F-9.7°C 12.2°F-11.0°C 90% 1.0 mph WSW1.6 kmh WSW 3.1 mph5.0 kmh 25.45 in861.8 mb 0.00 in0.0 mm 0.00 in0.0 mm 0.00 in0.0 mm
06:13 AM 14.7°F-9.6°C 12.4°F-10.9°C 90% 2.0 mph WSW3.2 kmh WSW 3.6 mph5.8 kmh 25.45 in861.8 mb 0.00 in0.0 mm 0.00 in0.0 mm 0.00 in0.0 mm
06:08 AM 14.7°F-9.6°C 12.4°F-10.9°C 90% 1.0 mph WSW1.6 kmh WSW 4.5 mph7.2 kmh 25.45 in861.8 mb 0.00 in0.0 mm 0.00 in0.0 mm 0.00 in0.0 mm
06:03 AM 14.9°F-9.5°C 12.6°F-10.8°C 90% Calm Calm 3.6 mph5.8 kmh 25.45 in861.8 mb 0.00 in0.0 mm 0.00 in0.0 mm 0.00 in0.0 mm
05:58 AM 15.1°F-9.4°C 12.7°F-10.7°C 90% Calm Calm 2.7 mph4.3 kmh 25.45 in861.8 mb 0.00 in0.0 mm 0.00 in0.0 mm 0.00 in0.0 mm
05:53 AM 15.1°F-9.4°C 12.7°F-10.7°C 90% Calm Calm 3.1 mph5.0 kmh 25.45 in861.8 mb 0.00 in0.0 mm 0.00 in0.0 mm 0.00 in0.0 mm
05:48 AM 15.1°F-9.4°C 12.7°F-10.7°C 90% Calm Calm 2.7 mph4.3 kmh 25.45 in861.8 mb 0.00 in0.0 mm 0.00 in0.0 mm 0.00 in0.0 mm
05:43 AM 14.9°F-9.5°C 12.6°F-10.8°C 90% Calm Calm 3.6 mph5.8 kmh 25.45 in861.8 mb 0.00 in0.0 mm 0.00 in0.0 mm 0.00 in0.0 mm
05:38 AM 14.7°F-9.6°C 12.4°F-10.9°C 90% Calm Calm -- 25.45 in861.8 mb 0.00 in0.0 mm 0.00 in0.0 mm 0.00 in0.0 mm
05:33 AM 14.7°F-9.6°C 12.4°F-10.9°C 90% Calm Calm 3.1 mph5.0 kmh 25.45 in861.8 mb 0.00 in0.0 mm 0.00 in0.0 mm 0.00 in0.0 mm
05:28 AM 14.5°F-9.7°C 12.2°F-11.0°C 90% Calm Calm 2.7 mph4.3 kmh 25.45 in861.8 mb 0.00 in0.0 mm 0.00 in0.0 mm 0.00 in0.0 mm
05:23 AM 14.5°F-9.7°C 12.2°F-11.0°C 90% Calm Calm -- 25.45 in861.8 mb 0.00 in0.0 mm 0.00 in0.0 mm 0.00 in0.0 mm
05:18 AM 14.5°F-9.7°C 12.2°F-11.0°C 90% Calm Calm -- 25.45 in861.8 mb 0.00 in0.0 mm 0.00 in0.0 mm 0.00 in0.0 mm
05:13 AM 14.5°F-9.7°C 12.2°F-11.0°C 90% Calm Calm -- 25.45 in861.8 mb 0.00 in0.0 mm 0.00 in0.0 mm 0.00 in0.0 mm
05:08 AM 14.4°F-9.8°C 12.0°F-11.1°C 90% 1.0 mph WSW1.6 kmh WSW 2.7 mph4.3 kmh 25.45 in861.8 mb 0.00 in0.0 mm 0.00 in0.0 mm 0.00 in0.0 mm
05:03 AM 14.4°F-9.8°C 12.0°F-11.1°C 90% 1.0 mph WSW1.6 kmh WSW 3.6 mph5.8 kmh 25.45 in861.8 mb 0.00 in0.0 mm 0.00 in0.0 mm 0.00 in0.0 mm
04:58 AM 14.4°F-9.8°C 12.0°F-11.1°C 90% 1.0 mph WSW1.6 kmh WSW 3.1 mph5.0 kmh 25.45 in861.8 mb 0.00 in0.0 mm 0.00 in0.0 mm 0.00 in0.0 mm
04:53 AM 14.4°F-9.8°C 12.0°F-11.1°C 90% 2.0 mph WSW3.2 kmh WSW 3.6 mph5.8 kmh 25.45 in861.8 mb 0.00 in0.0 mm 0.00 in0.0 mm 0.00 in0.0 mm
04:48 AM 14.7°F-9.6°C 12.4°F-10.9°C 90% 2.0 mph WSW3.2 kmh WSW 3.6 mph5.8 kmh 25.45 in861.8 mb 0.00 in0.0 mm 0.00 in0.0 mm 0.00 in0.0 mm
04:43 AM 14.9°F-9.5°C 12.6°F-10.8°C 90% Calm Calm 3.6 mph5.8 kmh 25.42 in860.8 mb 0.00 in0.0 mm 0.00 in0.0 mm 0.00 in0.0 mm
04:38 AM 14.9°F-9.5°C 12.6°F-10.8°C 90% Calm Calm 2.7 mph4.3 kmh 25.42 in860.8 mb 0.00 in0.0 mm 0.00 in0.0 mm 0.00 in0.0 mm
04:33 AM 15.1°F-9.4°C 12.7°F-10.7°C 90% 1.0 mph WSW1.6 kmh WSW 3.1 mph5.0 kmh 25.42 in860.8 mb 0.00 in0.0 mm 0.00 in0.0 mm 0.00 in0.0 mm
04:28 AM 15.3°F-9.3°C 12.9°F-10.6°C 90% 2.0 mph WSW3.2 kmh WSW 4.0 mph6.4 kmh 25.42 in860.8 mb 0.00 in0.0 mm 0.00 in0.0 mm 0.00 in0.0 mm
04:23 AM 14.9°F-9.5°C 12.6°F-10.8°C 90% 2.0 mph WSW3.2 kmh WSW 3.6 mph5.8 kmh 25.42 in860.8 mb 0.00 in0.0 mm 0.00 in0.0 mm 0.00 in0.0 mm
04:18 AM 14.4°F-9.8°C 12.0°F-11.1°C 90% 2.0 mph WSW3.2 kmh WSW 3.1 mph5.0 kmh 25.42 in860.8 mb 0.00 in0.0 mm 0.00 in0.0 mm 0.00 in0.0 mm
04:13 AM 14.0°F-10.0°C -5537.2°C - 1.0 mph WSW1.6 kmh WSW 3.1 mph5.0 kmh 25.42 in860.8 mb 0.00 in0.0 mm 0.00 in0.0 mm 0.00 in0.0 mm
04:08 AM 13.6°F-10.2°C -5537.2°C - Calm Calm 2.7 mph4.3 kmh 25.42 in860.8 mb 0.00 in0.0 mm 0.00 in0.0 mm 0.00 in0.0 mm
04:03 AM 13.6°F-10.2°C -5537.2°C - Calm Calm 2.7 mph4.3 kmh 25.42 in860.8 mb 0.00 in0.0 mm 0.00 in0.0 mm 0.00 in0.0 mm
03:58 AM 13.5°F-10.3°C -5537.2°C - Calm Calm 2.7 mph4.3 kmh 25.42 in860.8 mb 0.00 in0.0 mm 0.00 in0.0 mm 0.00 in0.0 mm
03:53 AM 13.1°F-10.5°C -5537.2°C - Calm Calm -- 25.42 in860.8 mb 0.00 in0.0 mm 0.00 in0.0 mm 0.00 in0.0 mm
03:48 AM 13.1°F-10.5°C -5537.2°C - Calm Calm 2.7 mph4.3 kmh 25.42 in860.8 mb 0.00 in0.0 mm 0.00 in0.0 mm 0.00 in0.0 mm
03:43 AM 13.5°F-10.3°C -5537.2°C - Calm Calm 3.1 mph5.0 kmh 25.42 in860.8 mb 0.00 in0.0 mm 0.00 in0.0 mm 0.00 in0.0 mm
03:38 AM 14.0°F-10.0°C 11.3°F-11.5°C 89% 1.0 mph WSW1.6 kmh WSW 2.7 mph4.3 kmh 25.42 in860.8 mb 0.00 in0.0 mm 0.00 in0.0 mm 0.00 in0.0 mm
03:33 AM 14.4°F-9.8°C 11.7°F-11.3°C 89% 1.0 mph WSW1.6 kmh WSW 3.6 mph5.8 kmh 25.42 in860.8 mb 0.00 in0.0 mm 0.00 in0.0 mm 0.00 in0.0 mm
03:28 AM 15.1°F-9.4°C 12.4°F-10.9°C 89% 2.0 mph WSW3.2 kmh WSW 3.1 mph5.0 kmh 25.42 in860.8 mb 0.00 in0.0 mm 0.00 in0.0 mm 0.00 in0.0 mm
03:23 AM 15.3°F-9.3°C 12.6°F-10.8°C 89% 3.0 mph WSW4.8 kmh WSW 4.5 mph7.2 kmh 25.42 in860.8 mb 0.00 in0.0 mm 0.00 in0.0 mm 0.00 in0.0 mm
03:18 AM 15.3°F-9.3°C 12.6°F-10.8°C 89% 3.0 mph WSW4.8 kmh WSW 4.9 mph7.9 kmh 25.42 in860.8 mb 0.00 in0.0 mm 0.00 in0.0 mm 0.00 in0.0 mm
03:13 AM 15.4°F-9.2°C 12.7°F-10.7°C 89% 2.0 mph WSW3.2 kmh WSW 4.5 mph7.2 kmh 25.42 in860.8 mb 0.00 in0.0 mm 0.00 in0.0 mm 0.00 in0.0 mm
03:08 AM 15.3°F-9.3°C 12.6°F-10.8°C 89% 2.0 mph WSW3.2 kmh WSW 4.0 mph6.4 kmh 25.42 in860.8 mb 0.00 in0.0 mm 0.00 in0.0 mm 0.00 in0.0 mm
03:03 AM 15.3°F-9.3°C 12.6°F-10.8°C 89% Calm Calm 4.5 mph7.2 kmh 25.42 in860.8 mb 0.00 in0.0 mm 0.00 in0.0 mm 0.00 in0.0 mm
02:58 AM 15.1°F-9.4°C 12.4°F-10.9°C 89% Calm Calm -- 25.42 in860.8 mb 0.00 in0.0 mm 0.00 in0.0 mm 0.00 in0.0 mm
02:53 AM 14.9°F-9.5°C 12.2°F-11.0°C 89% Calm Calm -- 25.42 in860.8 mb 0.00 in0.0 mm 0.00 in0.0 mm 0.00 in0.0 mm
02:48 AM 14.9°F-9.5°C 12.2°F-11.0°C 89% Calm Calm -- 25.42 in860.8 mb 0.00 in0.0 mm 0.00 in0.0 mm 0.00 in0.0 mm
02:43 AM 14.9°F-9.5°C 12.2°F-11.0°C 89% Calm Calm 3.1 mph5.0 kmh 25.42 in860.8 mb 0.00 in0.0 mm 0.00 in0.0 mm 0.00 in0.0 mm
02:38 AM 15.1°F-9.4°C 12.4°F-10.9°C 89% Calm Calm 3.1 mph5.0 kmh 25.42 in860.8 mb 0.00 in0.0 mm 0.00 in0.0 mm 0.00 in0.0 mm
02:33 AM 15.1°F-9.4°C 12.4°F-10.9°C 89% Calm Calm 2.7 mph4.3 kmh 25.42 in860.8 mb 0.00 in0.0 mm 0.00 in0.0 mm 0.00 in0.0 mm
02:28 AM 15.1°F-9.4°C 12.4°F-10.9°C 89% Calm Calm 3.1 mph5.0 kmh 25.42 in860.8 mb 0.00 in0.0 mm 0.00 in0.0 mm 0.00 in0.0 mm
02:23 AM 15.1°F-9.4°C 12.4°F-10.9°C 89% Calm Calm 2.7 mph4.3 kmh 25.42 in860.8 mb 0.00 in0.0 mm 0.00 in0.0 mm 0.00 in0.0 mm
02:18 AM 15.4°F-9.2°C 12.7°F-10.7°C 89% Calm Calm 3.1 mph5.0 kmh 25.42 in860.8 mb 0.00 in0.0 mm 0.00 in0.0 mm 0.00 in0.0 mm
02:13 AM 15.6°F-9.1°C 12.9°F-10.6°C 89% 1.0 mph WSW1.6 kmh WSW 2.7 mph4.3 kmh 25.42 in860.8 mb 0.00 in0.0 mm 0.00 in0.0 mm 0.00 in0.0 mm
02:08 AM 15.6°F-9.1°C 12.9°F-10.6°C 89% 2.0 mph WSW3.2 kmh WSW 4.0 mph6.4 kmh 25.42 in860.8 mb 0.00 in0.0 mm 0.00 in0.0 mm 0.00 in0.0 mm
02:03 AM 15.8°F-9.0°C 13.5°F-10.3°C 90% 1.0 mph SW1.6 kmh SW 4.0 mph6.4 kmh 25.42 in860.8 mb 0.00 in0.0 mm 0.00 in0.0 mm 0.00 in0.0 mm
01:58 AM 16.0°F-8.9°C 13.6°F-10.2°C 90% Calm Calm 2.7 mph4.3 kmh 25.42 in860.8 mb 0.00 in0.0 mm 0.00 in0.0 mm 0.00 in0.0 mm
01:53 AM 15.6°F-9.1°C 13.3°F-10.4°C 90% Calm Calm 2.7 mph4.3 kmh 25.42 in860.8 mb 0.00 in0.0 mm 0.00 in0.0 mm 0.00 in0.0 mm
01:47 AM 15.1°F-9.4°C 12.7°F-10.7°C 90% Calm Calm 2.7 mph4.3 kmh 25.42 in860.8 mb 0.00 in0.0 mm 0.00 in0.0 mm 0.00 in0.0 mm
01:42 AM 14.5°F-9.7°C 11.8°F-11.2°C 89% Calm Calm 3.1 mph5.0 kmh 25.42 in860.8 mb 0.00 in0.0 mm 0.00 in0.0 mm 0.00 in0.0 mm
01:37 AM 14.2°F-9.9°C 11.8°F-11.2°C 90% Calm Calm 2.7 mph4.3 kmh 25.42 in860.8 mb 0.00 in0.0 mm 0.00 in0.0 mm 0.00 in0.0 mm
01:32 AM 14.0°F-10.0°C 11.3°F-11.5°C 89% 1.0 mph SW1.6 kmh SW 3.6 mph5.8 kmh 25.42 in860.8 mb 0.00 in0.0 mm 0.00 in0.0 mm 0.00 in0.0 mm
01:27 AM 13.8°F-10.1°C -5537.2°C - Calm Calm 3.1 mph5.0 kmh 25.39 in859.8 mb 0.00 in0.0 mm 0.00 in0.0 mm 0.00 in0.0 mm
01:22 AM 14.0°F-10.0°C 11.3°F-11.5°C 89% Calm Calm -- 25.39 in859.8 mb 0.00 in0.0 mm 0.00 in0.0 mm 0.00 in0.0 mm
01:17 AM 14.0°F-10.0°C 11.7°F-11.3°C 90% Calm Calm 3.1 mph5.0 kmh 25.39 in859.8 mb 0.00 in0.0 mm 0.00 in0.0 mm 0.00 in0.0 mm
01:12 AM 14.0°F-10.0°C 11.7°F-11.3°C 90% Calm Calm 3.1 mph5.0 kmh 25.42 in860.8 mb 0.00 in0.0 mm 0.00 in0.0 mm 0.00 in0.0 mm
01:07 AM 14.4°F-9.8°C 12.0°F-11.1°C 90% 1.0 mph SW1.6 kmh SW 3.6 mph5.8 kmh 25.42 in860.8 mb 0.00 in0.0 mm 0.00 in0.0 mm 0.00 in0.0 mm
01:02 AM 14.7°F-9.6°C 12.4°F-10.9°C 90% 2.0 mph SW3.2 kmh SW 4.0 mph6.4 kmh 25.42 in860.8 mb 0.00 in0.0 mm 0.00 in0.0 mm 0.00 in0.0 mm
12:57 AM 15.3°F-9.3°C 12.9°F-10.6°C 90% 2.0 mph SSW3.2 kmh SSW 4.9 mph7.9 kmh 25.39 in859.8 mb 0.00 in0.0 mm 0.00 in0.0 mm 0.00 in0.0 mm
12:52 AM 14.7°F-9.6°C 12.0°F-11.1°C 89% 2.0 mph SSW3.2 kmh SSW 4.0 mph6.4 kmh 25.39 in859.8 mb 0.00 in0.0 mm 0.00 in0.0 mm 0.00 in0.0 mm
12:47 AM 14.4°F-9.8°C 11.7°F-11.3°C 89% Calm Calm 3.6 mph5.8 kmh 25.39 in859.8 mb 0.00 in0.0 mm 0.00 in0.0 mm 0.00 in0.0 mm
12:42 AM 14.4°F-9.8°C 11.7°F-11.3°C 89% Calm Calm -- 25.42 in860.8 mb 0.00 in0.0 mm 0.00 in0.0 mm 0.00 in0.0 mm
12:37 AM 14.2°F-9.9°C 11.3°F-11.5°C 88% Calm Calm 3.6 mph5.8 kmh 25.42 in860.8 mb 0.00 in0.0 mm 0.00 in0.0 mm 0.00 in0.0 mm
12:32 AM 14.2°F-9.9°C 11.3°F-11.5°C 88% Calm Calm -- 25.42 in860.8 mb 0.00 in0.0 mm 0.00 in0.0 mm 0.00 in0.0 mm
12:27 AM 14.2°F-9.9°C 11.3°F-11.5°C 88% Calm Calm -- 25.42 in860.8 mb 0.00 in0.0 mm 0.00 in0.0 mm 0.00 in0.0 mm
12:22 AM 14.0°F-10.0°C 11.1°F-11.6°C 88% Calm Calm -- 25.42 in860.8 mb 0.00 in0.0 mm 0.00 in0.0 mm 0.00 in0.0 mm
12:17 AM 14.0°F-10.0°C 11.1°F-11.6°C 88% 1.0 mph SSW1.6 kmh SSW 2.7 mph4.3 kmh 25.42 in860.8 mb 0.00 in0.0 mm 0.00 in0.0 mm 0.00 in0.0 mm
12:12 AM 14.5°F-9.7°C 11.7°F-11.3°C 88% 1.0 mph SSW1.6 kmh SSW 3.6 mph5.8 kmh 25.42 in860.8 mb 0.00 in0.0 mm 0.00 in0.0 mm 0.00 in0.0 mm
12:07 AM 15.1°F-9.4°C 12.2°F-11.0°C 88% Calm Calm 2.7 mph4.3 kmh 25.42 in860.8 mb 0.00 in0.0 mm 0.00 in0.0 mm 0.00 in0.0 mm
12:02 AM 15.6°F-9.1°C 12.7°F-10.7°C 88% Calm Calm 3.6 mph5.8 kmh 25.42 in860.8 mb 0.00 in0.0 mm 0.00 in0.0 mm 0.00 in0.0 mm